Falun, KS (67442)

3:13 AM CDT on October 24, 2014 (GMT -0500)
Koki's Pond | Change Station
CLOSE
Current Station
Personal Weather Station
Location: Lindsborg, KS
Elevation: 1480 ft
Nearby Weather Stations

Elev 1480 ft 38.52 °N, 97.66 °W | Updated 0 second ago

Clear
Clear
59.5 °F
Feels Like 59.5 °F
N
8.0
Wind Variable Wind from SSE
Gusts 13.0 mph

Today
High -- | Low -- °F
--% Chance of Precip.
Yesterday
High -- | Low -- °F
Precip. -- in
7:49 AM 6:40 PM
New Moon, 0% visible
Pressure 30.02 in
Visibility 4.0 miles
Clouds Clear
Dew Point 58 °F
Humidity 93%
Rainfall 0.00 in
Snow Depth Not available.
UV 0.0 out of 12
Pollen 1.20 out of 12
Air Quality Not available.
Flu Activity No Activity
METAR KSLN 240753Z AUTO 17006KT 4SM BR CLR 15/13 A3004 RMK AO2 SLP165 T01500133

More Conditions Fewer Conditions

Pressure 30.02 in
Visibility 4.0 miles
Clouds Clear
Dew Point 58 °F
Humidity 93%
Rainfall 0.00 in
Snow Depth Not available.
UV 0.0 out of 12
Pollen 1.20 out of 12
Air Quality Not available.
Flu Activity No Activity
METAR KSLN 240753Z AUTO 17006KT 4SM BR CLR 15/13 A3004 RMK AO2 SLP165 T01500133

More Conditions Fewer Conditions

10-Day Weather Forecast

Almanac

Astronomy

Oct. 24, 2014 Rise Set
Actual Time 7:49 AM CDT 6:40 PM CDT
Civil Twilight 7:22 AM CDT 7:07 PM CDT
Nautical Twilight 6:51 AM CDT 7:38 PM CDT
Astronomical Twilight 6:20 AM CDT 8:09 PM CDT
Moon 8:29 AM CDT 7:21 PM CDT
Length of Visible Light 11h 45m
Length of Day
10h 51m
Tomorrow will be 2m 19s shorter.
New Moon, 0% of the Moon is Illuminated
Today
New Moon
Oct 30
First Quarter
Nov 6
Full
Nov 14
Last Quarter
Nov 22
New

Today's Extremes

State Highs State Lows

Community

WunderPhotos

Upload Photos

1,764,511 photos uploaded!

WunderBlogs® & News

Nearby

Snow Depth

Station Depth Elevation
No new snow has been reported.

Earthquake Activity

City Distance Mag. Time & Date
Anthony, Kansas 113 miles 2.7 9:47 PM CDT
2014-10-22
Anthony, Kansas 112 miles 3.3 6:48 PM CDT
2014-10-22
Cherokee, Oklahoma 131 miles 2.9 2:48 PM CDT
2014-10-21
Cherokee, Oklahoma 133 miles 2.5 8:27 AM CDT
2014-10-21
Minimum magnitude displayed is 2.5.

Coastal Water Temperatures

Place Temperature
No Stations Reporting

Nearby Weather Stations